Time;durP1;ratioP1;P1;durP2;ratioP2;P2;SDS_P1;SDS_P2;PMS_P1;PMS_P2;Temp;Humidity;BMP_temperature;BMP_pressure;BME280_temperature;BME280_humidity;BME280_pressure;Samples;Min_cycle;Max_cycle;Signal;HPM_P1;HPM_P2
2022/08/09 00:00:33;;;;;;;1.40;1.30;;;18.10;55.20;;;;;;5069615;28;20728;-83
2022/08/09 00:03:00;;;;;;;1.50;1.40;;;18.00;55.60;;;;;;5075158;28;20666;-84
2022/08/09 00:05:27;;;;;;;1.57;1.47;;;18.00;55.60;;;;;;5080770;28;20784;-84
2022/08/09 00:07:54;;;;;;;1.33;1.23;;;18.40;55.70;;;;;;5071331;28;20675;-82
2022/08/09 00:10:21;;;;;;;1.47;1.37;;;18.10;55.10;;;;;;5085432;28;20752;-83
2022/08/09 00:12:50;;;;;;;1.57;1.33;;;18.10;55.40;;;;;;5089140;28;20661;-84
2022/08/09 00:15:18;;;;;;;1.50;1.40;;;18.20;54.70;;;;;;5073548;28;20627;-84
2022/08/09 00:17:45;;;;;;;1.63;1.53;;;18.10;55.80;;;;;;5089782;28;20612;-82
2022/08/09 00:20:13;;;;;;;1.50;1.40;;;18.10;55.90;;;;;;5075241;28;20665;-83
2022/08/09 00:22:40;;;;;;;1.23;1.03;;;18.10;55.40;;;;;;5070458;28;20621;-84
2022/08/09 00:25:08;;;;;;;1.57;1.47;;;18.10;55.30;;;;;;5085684;28;20620;-83
2022/08/09 00:27:36;;;;;;;1.40;1.30;;;18.00;54.50;;;;;;5069260;28;20613;-83
2022/08/09 00:30:05;;;;;;;1.37;1.27;;;18.00;55.30;;;;;;5082803;28;20608;-84
2022/08/09 00:32:32;;;;;;;1.90;1.80;;;18.00;55.60;;;;;;5073611;28;20629;-83
2022/08/09 00:35:00;;;;;;;3.30;1.47;;;17.90;56.40;;;;;;5078706;28;20657;-84
2022/08/09 00:37:29;;;;;;;1.43;1.40;;;17.80;55.70;;;;;;5087930;28;20624;-84
2022/08/09 00:39:57;;;;;;;1.53;1.43;;;17.80;56.10;;;;;;5087765;28;20620;-82
2022/08/09 00:42:27;;;;;;;2.43;1.53;;;17.80;56.40;;;;;;5072518;28;20628;-83
2022/08/09 00:44:55;;;;;;;2.40;2.10;;;17.70;55.80;;;;;;5086287;28;20661;-83
2022/08/09 00:47:24;;;;;;;1.70;1.60;;;17.40;56.20;;;;;;5073917;28;20616;-84
2022/08/09 00:49:53;;;;;;;1.67;1.47;;;17.30;60.50;;;;;;5089374;28;20632;-83
2022/08/09 00:52:23;;;;;;;1.57;1.47;;;17.10;59.00;;;;;;5085278;28;21172;-83
2022/08/09 00:54:52;;;;;;;1.57;1.47;;;17.20;59.40;;;;;;5081934;28;20672;-83
2022/08/09 00:57:20;;;;;;;2.90;1.97;;;17.30;57.70;;;;;;5086220;28;20661;-84
2022/08/09 00:59:47;;;;;;;1.77;1.67;;;17.30;57.20;;;;;;5081714;28;20616;-84
2022/08/09 01:02:19;;;;;;;1.80;1.43;;;17.30;59.00;;;;;;5086030;28;21262;-83
2022/08/09 01:04:54;;;;;;;2.13;1.73;;;17.30;58.40;;;;;;5086611;28;20609;-84
2022/08/09 01:07:31;;;;;;;1.20;1.10;;;17.20;59.70;;;;;;5089913;28;21194;-84
2022/08/09 01:10:03;;;;;;;1.10;1.00;;;17.20;60.00;;;;;;5072382;28;20720;-83
2022/08/09 01:12:38;;;;;;;1.63;1.53;;;17.10;59.30;;;;;;5068722;28;20671;-84
2022/08/09 01:15:09;;;;;;;1.47;1.37;;;17.40;61.20;;;;;;5076277;28;20657;-84
2022/08/09 01:17:38;;;;;;;2.40;1.90;;;17.10;59.00;;;;;;5073038;28;20637;-83
2022/08/09 01:20:11;;;;;;;1.60;1.50;;;17.10;60.00;;;;;;5070177;28;21102;-83
2022/08/09 01:23:14;;;;;;;1.97;1.87;;;17.00;58.60;;;;;;5068535;28;21254;-83
2022/08/09 01:26:13;;;;;;;1.40;1.30;;;17.10;58.20;;;;;;5071684;28;20622;-83
2022/08/09 01:28:45;;;;;;;1.53;1.43;;;16.80;60.40;;;;;;5068359;28;20637;-83
2022/08/09 01:31:17;;;;;;;0.97;0.93;;;16.90;58.60;;;;;;5084430;28;21280;-84
2022/08/09 01:33:47;;;;;;;2.47;1.80;;;17.20;60.00;;;;;;5072001;28;20663;-83
2022/08/09 01:36:20;;;;;;;1.30;1.20;;;16.90;58.10;;;;;;5085896;28;20731;-83
2022/08/09 01:38:50;;;;;;;1.70;1.60;;;16.80;57.90;;;;;;5083589;28;20621;-84
2022/08/09 01:41:22;;;;;;;1.73;1.37;;;16.60;64.50;;;;;;5075747;28;20717;-83
2022/08/09 01:43:52;;;;;;;1.80;1.70;;;16.80;58.90;;;;;;5088378;28;21157;-83
2022/08/09 01:46:23;;;;;;;1.50;1.30;;;16.70;58.70;;;;;;5078419;28;20629;-81
2022/08/09 01:48:54;;;;;;;1.23;1.20;;;16.90;63.30;;;;;;5069078;28;21051;-83
2022/08/09 01:51:22;;;;;;;1.60;1.50;;;16.70;59.10;;;;;;5073029;28;20627;-83
2022/08/09 01:53:51;;;;;;;1.90;1.53;;;16.70;59.50;;;;;;5087666;28;21260;-83
2022/08/09 01:56:20;;;;;;;1.30;1.23;;;16.60;59.50;;;;;;5083903;28;21014;-83
2022/08/09 01:58:51;;;;;;;1.70;1.60;;;16.50;60.00;;;;;;5067761;28;20633;-83
2022/08/09 02:01:20;;;;;;;3.90;1.83;;;16.40;60.80;;;;;;5076901;28;20658;-83
2022/08/09 02:03:48;;;;;;;1.73;1.63;;;16.70;68.80;;;;;;5069004;28;20745;-84
2022/08/09 02:06:16;;;;;;;1.47;1.37;;;16.40;60.70;;;;;;5068087;28;20617;-83
2022/08/09 02:08:45;;;;;;;2.93;2.73;;;16.20;63.10;;;;;;5068334;28;20655;-83
2022/08/09 02:11:14;;;;;;;1.87;1.77;;;15.80;63.70;;;;;;5076520;28;20613;-83
2022/08/09 02:13:42;;;;;;;1.80;1.40;;;16.10;64.90;;;;;;5070772;28;20625;-83
2022/08/09 02:16:12;;;;;;;3.20;1.83;;;16.00;65.60;;;;;;5073928;28;21202;-81
2022/08/09 02:18:39;;;;;;;1.43;1.33;;;15.70;72.00;;;;;;5083932;28;20979;-84
2022/08/09 02:21:11;;;;;;;3.60;1.80;;;16.20;73.90;;;;;;5069716;28;20616;-83
2022/08/09 02:23:42;;;;;;;1.70;1.60;;;15.90;67.40;;;;;;5087159;28;20732;-82
2022/08/09 02:26:12;;;;;;;1.60;1.50;;;16.10;71.20;;;;;;5086446;28;21608;-83
2022/08/09 02:28:43;;;;;;;1.60;1.50;;;16.10;65.30;;;;;;5082526;28;20616;-83
2022/08/09 02:31:19;;;;;;;2.60;2.40;;;15.70;69.30;;;;;;5070350;28;21191;-82
2022/08/09 02:33:54;;;;;;;3.17;2.00;;;16.00;66.40;;;;;;5072367;28;20636;-81
2022/08/09 02:36:30;;;;;;;1.60;1.50;;;15.90;67.00;;;;;;5067224;28;20637;-83
2022/08/09 02:39:00;;;;;;;1.70;1.60;;;15.90;66.60;;;;;;5077500;28;20621;-83
2022/08/09 02:41:33;;;;;;;2.00;1.90;;;15.70;70.60;;;;;;5080742;28;21025;-84
2022/08/09 02:44:06;;;;;;;1.93;1.83;;;15.90;64.80;;;;;;5087390;28;20743;-83
2022/08/09 02:46:38;;;;;;;5.30;1.90;;;15.90;64.30;;;;;;5082888;28;21221;-84
2022/08/09 02:49:10;;;;;;;2.47;1.77;;;15.50;66.20;;;;;;5087964;28;20633;-83
2022/08/09 02:51:39;;;;;;;2.03;1.70;;;15.80;66.90;;;;;;5075060;28;20720;-81
2022/08/09 02:54:10;;;;;;;1.73;1.63;;;15.80;66.60;;;;;;5085092;28;20760;-84
2022/08/09 02:56:40;;;;;;;1.80;1.70;;;15.70;71.60;;;;;;5075160;28;20637;-83
2022/08/09 02:59:10;;;;;;;2.17;1.80;;;15.80;65.60;;;;;;5077080;28;20723;-84
2022/08/09 03:01:39;;;;;;;3.13;2.13;;;15.70;66.10;;;;;;5079938;28;20863;-82
2022/08/09 03:04:08;;;;;;;1.77;1.67;;;15.70;67.40;;;;;;5071864;28;20628;-83
2022/08/09 03:06:36;;;;;;;1.87;1.73;;;15.50;67.80;;;;;;5071178;28;21195;-84
2022/08/09 03:09:04;;;;;;;1.50;1.40;;;15.60;68.30;;;;;;5072518;28;20621;-83
2022/08/09 03:11:32;;;;;;;1.60;1.50;;;15.60;68.70;;;;;;5079094;28;20612;-83
2022/08/09 03:14:01;;;;;;;2.00;1.73;;;15.50;73.30;;;;;;5081461;28;21119;-84
2022/08/09 03:16:29;;;;;;;2.10;1.90;;;15.50;67.70;;;;;;5078261;28;20683;-83
2022/08/09 03:19:00;;;;;;;1.83;1.73;;;15.60;67.30;;;;;;5086162;28;20667;-84
2022/08/09 03:21:28;;;;;;;2.53;2.33;;;15.60;72.70;;;;;;5072468;28;21159;-82
2022/08/09 03:23:55;;;;;;;2.83;2.47;;;15.30;67.70;;;;;;5070532;28;20708;-83
2022/08/09 03:26:22;;;;;;;1.80;1.70;;;;;;;;;;5071386;28;20814;-83
2022/08/09 03:28:50;;;;;;;2.93;2.33;;;15.40;68.10;;;;;;5087890;28;20897;-84
2022/08/09 03:31:18;;;;;;;2.27;2.07;;;15.30;68.70;;;;;;5074157;28;20692;-83
2022/08/09 03:33:46;;;;;;;1.80;1.70;;;15.10;72.80;;;;;;5072454;28;20748;-83
2022/08/09 03:36:14;;;;;;;1.70;1.60;;;15.40;69.60;;;;;;5069902;28;20753;-84
2022/08/09 03:38:43;;;;;;;1.73;1.63;;;15.40;68.30;;;;;;5083211;28;20659;-84
2022/08/09 03:41:10;;;;;;;2.53;2.07;;;15.20;72.60;;;;;;5086862;28;21515;-83
2022/08/09 03:43:37;;;;;;;2.40;2.20;;;14.90;72.60;;;;;;5089450;28;20649;-83
2022/08/09 03:46:05;;;;;;;4.30;3.20;;;;;;;;;;5090700;28;20975;-83
2022/08/09 03:48:33;;;;;;;2.27;2.07;;;15.20;73.90;;;;;;5076719;28;20961;-83
2022/08/09 03:51:03;;;;;;;2.20;2.10;;;15.20;69.30;;;;;;5071070;28;20732;-84
2022/08/09 03:53:32;;;;;;;2.73;2.50;;;15.10;71.90;;;;;;5071652;28;20622;-83
2022/08/09 03:55:59;;;;;;;2.67;2.47;;;15.20;69.40;;;;;;5090629;28;20710;-84
2022/08/09 03:58:26;;;;;;;2.43;2.23;;;15.20;69.10;;;;;;5070976;28;20621;-83
2022/08/09 04:00:55;;;;;;;2.30;2.20;;;15.20;68.80;;;;;;5074351;28;20639;-83
2022/08/09 04:03:25;;;;;;;3.07;2.77;;;15.20;70.60;;;;;;5069958;28;21175;-84
2022/08/09 04:05:52;;;;;;;2.80;2.57;;;15.30;69.70;;;;;;5070097;28;21222;-83
2022/08/09 04:08:19;;;;;;;2.67;2.40;;;15.20;68.70;;;;;;5070480;28;20633;-83
2022/08/09 04:10:47;;;;;;;2.63;2.43;;;15.20;71.50;;;;;;5071652;28;20637;-83
2022/08/09 04:13:14;;;;;;;2.73;2.53;;;15.20;71.90;;;;;;5074138;28;21186;-83
2022/08/09 04:15:43;;;;;;;2.97;2.77;;;15.20;71.90;;;;;;5090172;28;20664;-83
2022/08/09 04:18:10;;;;;;;2.90;2.70;;;15.20;72.10;;;;;;5086315;28;21256;-84
2022/08/09 04:20:37;;;;;;;3.50;2.77;;;15.20;71.90;;;;;;5069421;28;20725;-83
2022/08/09 04:23:05;;;;;;;2.53;2.30;;;15.30;71.30;;;;;;5080675;28;21032;-83
2022/08/09 04:25:32;;;;;;;3.57;3.17;;;15.20;71.40;;;;;;5075772;28;20625;-82
2022/08/09 04:28:00;;;;;;;3.20;3.00;;;15.20;71.50;;;;;;5091082;28;20628;-83
2022/08/09 04:30:27;;;;;;;1.80;1.70;;;15.20;73.60;;;;;;5072483;28;20645;-83
2022/08/09 04:32:54;;;;;;;5.37;2.80;;;15.10;71.80;;;;;;5086436;28;20604;-83
2022/08/09 04:35:21;;;;;;;2.73;2.53;;;15.10;75.70;;;;;;5073112;28;21022;-83
2022/08/09 04:37:48;;;;;;;2.73;2.53;;;15.10;73.40;;;;;;5080999;28;20642;-84
2022/08/09 04:40:15;;;;;;;2.60;1.80;;;15.20;75.00;;;;;;5069955;28;20716;-83
2022/08/09 04:42:42;;;;;;;2.40;2.20;;;15.20;75.50;;;;;;5076324;28;20654;-82
2022/08/09 04:45:11;;;;;;;1.80;1.60;;;15.20;75.20;;;;;;5069937;28;20636;-84
2022/08/09 04:47:38;;;;;;;2.30;2.10;;;15.20;75.40;;;;;;5069892;28;20732;-82
2022/08/09 04:50:06;;;;;;;2.07;1.97;;;15.30;75.30;;;;;;5069555;28;20625;-83
2022/08/09 04:52:33;;;;;;;2.60;2.40;;;15.30;75.80;;;;;;5073807;28;20687;-83
2022/08/09 04:55:01;;;;;;;2.30;2.20;;;15.60;77.90;;;;;;5087548;28;20721;-83
2022/08/09 04:57:28;;;;;;;3.80;2.90;;;15.50;76.50;;;;;;5069696;28;20722;-83
2022/08/09 04:59:56;;;;;;;2.70;2.50;;;15.40;73.70;;;;;;5082694;28;20682;-84
2022/08/09 05:02:46;;;;;;;2.43;2.23;;;15.30;76.50;;;;;;5072678;28;21058;-83
2022/08/09 05:05:21;;;;;;;2.67;2.47;;;15.60;74.30;;;;;;5071601;28;20625;-81
2022/08/09 05:07:48;;;;;;;2.97;2.30;;;15.70;73.80;;;;;;5088660;28;20649;-83
2022/08/09 05:10:15;;;;;;;2.43;2.30;;;15.80;75.00;;;;;;5088582;28;21131;-82
2022/08/09 05:12:42;;;;;;;4.00;2.67;;;15.60;77.30;;;;;;5074488;28;20725;-83
2022/08/09 05:15:09;;;;;;;3.23;2.07;;;15.80;75.10;;;;;;5082914;28;20764;-84
2022/08/09 05:17:36;;;;;;;2.27;2.07;;;15.80;75.20;;;;;;5069181;28;20737;-84
2022/08/09 05:20:06;;;;;;;2.30;2.13;;;15.90;76.00;;;;;;5085460;28;20823;-83
2022/08/09 05:22:33;;;;;;;2.60;2.30;;;15.90;76.00;;;;;;5080671;28;20637;-84
2022/08/09 05:25:00;;;;;;;2.50;2.30;;;16.10;76.70;;;;;;5075557;28;20625;-82
2022/08/09 05:27:27;;;;;;;2.63;2.43;;;16.10;76.50;;;;;;5069010;28;20629;-80
2022/08/09 05:29:53;;;;;;;2.13;1.90;;;16.20;76.70;;;;;;5083928;28;21082;-83
2022/08/09 05:32:20;;;;;;;2.30;2.20;;;16.30;75.40;;;;;;5069195;28;20625;-84
2022/08/09 05:34:47;;;;;;;2.10;2.00;;;16.40;75.10;;;;;;5069792;28;20713;-84
2022/08/09 05:37:16;;;;;;;2.03;1.87;;;16.50;74.70;;;;;;5068084;28;20632;-83
2022/08/09 05:39:42;;;;;;;2.47;2.27;;;16.70;72.70;;;;;;5081562;28;20635;-83
2022/08/09 05:42:10;;;;;;;2.57;2.37;;;16.70;73.20;;;;;;5072789;28;20768;-83
2022/08/09 05:44:36;;;;;;;1.70;1.60;;;17.00;72.60;;;;;;5068470;28;20694;-83
2022/08/09 05:47:03;;;;;;;2.37;2.17;;;17.30;71.70;;;;;;5083503;28;20629;-84
2022/08/09 05:49:30;;;;;;;2.43;2.13;;;17.50;70.30;;;;;;5076694;28;20630;-84
2022/08/09 05:51:57;;;;;;;2.30;2.20;;;17.70;71.00;;;;;;5067255;28;20735;-83
2022/08/09 05:54:25;;;;;;;2.40;2.20;;;17.90;68.80;;;;;;5083650;28;20625;-85
2022/08/09 05:56:52;;;;;;;2.10;2.00;;;18.10;69.50;;;;;;5085212;28;21354;-84
2022/08/09 05:59:20;;;;;;;2.07;1.90;;;18.10;69.20;;;;;;5076086;28;20683;-83
2022/08/09 06:01:48;;;;;;;2.50;2.30;;;18.30;67.70;;;;;;5073910;28;20633;-80
2022/08/09 06:04:14;;;;;;;2.20;2.10;;;18.40;67.20;;;;;;5085910;28;20656;-84
2022/08/09 06:06:41;;;;;;;2.00;1.90;;;18.60;65.60;;;;;;5082212;28;20641;-84
2022/08/09 06:09:08;;;;;;;2.10;1.97;;;18.60;66.20;;;;;;5077103;28;20621;-84
2022/08/09 06:11:37;;;;;;;2.47;2.27;;;18.80;65.30;;;;;;5072666;28;20640;-84
2022/08/09 06:14:03;;;;;;;2.60;2.40;;;18.80;66.00;;;;;;5088155;28;20655;-83
2022/08/09 06:16:30;;;;;;;4.33;2.70;;;18.80;65.60;;;;;;5075563;28;21379;-85
2022/08/09 06:18:57;;;;;;;2.53;2.33;;;19.00;66.20;;;;;;5076380;28;20750;-84
2022/08/09 06:21:24;;;;;;;3.80;2.40;;;19.10;66.90;;;;;;5087713;28;20601;-83
2022/08/09 06:23:51;;;;;;;2.43;2.27;;;19.00;66.00;;;;;;5082754;28;21012;-82
2022/08/09 06:26:19;;;;;;;3.20;2.83;;;19.10;66.30;;;;;;5080228;28;20636;-83
2022/08/09 06:28:48;;;;;;;2.77;2.57;;;19.40;65.10;;;;;;5070951;28;20621;-84
2022/08/09 06:31:15;;;;;;;3.00;2.60;;;19.40;65.60;;;;;;5076591;28;20617;-84
2022/08/09 06:33:42;;;;;;;2.17;2.00;;;19.60;64.80;;;;;;5082501;28;20703;-81
2022/08/09 06:36:09;;;;;;;2.87;2.67;;;19.60;65.10;;;;;;5068625;28;20668;-83
2022/08/09 06:38:37;;;;;;;1.90;1.70;;;19.70;65.00;;;;;;5068403;28;21032;-83
2022/08/09 06:41:04;;;;;;;2.67;2.47;;;19.80;64.90;;;;;;5072031;28;21507;-85
2022/08/09 06:43:31;;;;;;;2.40;2.20;;;19.90;66.20;;;;;;5080193;28;20629;-83
2022/08/09 06:45:59;;;;;;;2.30;2.10;;;19.90;64.20;;;;;;5087644;28;20623;-84
2022/08/09 06:48:26;;;;;;;2.37;2.17;;;20.10;63.50;;;;;;5070994;28;21052;-85
2022/08/09 06:50:53;;;;;;;2.77;2.53;;;20.20;63.40;;;;;;5087929;28;20617;-84
2022/08/09 06:53:20;;;;;;;2.10;2.00;;;20.30;62.00;;;;;;5068271;28;20666;-83
2022/08/09 06:55:47;;;;;;;2.97;2.50;;;20.30;61.30;;;;;;5073759;28;20765;-83
2022/08/09 06:58:14;;;;;;;2.57;2.37;;;20.50;61.00;;;;;;5068117;28;20621;-83
2022/08/09 07:00:41;;;;;;;3.00;2.60;;;20.60;60.90;;;;;;5067545;28;20675;-84
2022/08/09 07:03:09;;;;;;;2.30;2.20;;;20.60;60.60;;;;;;5079256;28;20649;-85
2022/08/09 07:05:36;;;;;;;2.93;2.73;;;20.80;60.20;;;;;;5081780;28;20632;-85
2022/08/09 07:08:03;;;;;;;2.60;2.40;;;20.90;60.40;;;;;;5079148;28;21255;-83
2022/08/09 07:10:31;;;;;;;3.40;2.30;;;21.10;58.90;;;;;;5080679;28;20622;-82
2022/08/09 07:12:58;;;;;;;1.97;1.87;;;21.00;59.10;;;;;;5085950;28;20624;-84
2022/08/09 07:15:25;;;;;;;2.47;2.33;;;21.10;59.00;;;;;;5087329;28;21177;-83
2022/08/09 07:17:52;;;;;;;7.10;2.70;;;21.20;59.50;;;;;;5075695;28;20659;-84
2022/08/09 07:20:20;;;;;;;2.13;1.97;;;21.40;59.40;;;;;;5079193;28;20701;-84
2022/08/09 07:22:47;;;;;;;2.70;2.50;;;21.50;58.60;;;;;;5086116;28;20702;-84
2022/08/09 07:25:14;;;;;;;3.77;2.83;;;21.60;58.50;;;;;;5086653;28;20631;-85
2022/08/09 07:27:42;;;;;;;2.33;2.20;;;21.70;58.40;;;;;;5079603;28;20610;-83
2022/08/09 07:30:12;;;;;;;3.10;2.80;;;21.80;57.90;;;;;;5072941;28;21210;-83
2022/08/09 07:32:40;;;;;;;2.60;2.40;;;22.00;57.30;;;;;;5086007;28;20621;-83
2022/08/09 07:35:09;;;;;;;3.10;2.63;;;22.00;57.40;;;;;;5070645;28;20624;-84
2022/08/09 07:37:38;;;;;;;2.73;2.53;;;22.10;58.10;;;;;;5066163;28;20669;-83
2022/08/09 07:40:06;;;;;;;2.57;2.37;;;22.10;57.60;;;;;;5070489;28;20629;-84
2022/08/09 07:42:32;;;;;;;2.37;2.17;;;22.40;57.20;;;;;;5084849;28;20632;-84
2022/08/09 07:44:59;;;;;;;2.20;2.00;;;22.40;57.60;;;;;;5086777;28;21220;-85
2022/08/09 07:47:26;;;;;;;2.37;2.17;;;22.60;57.40;;;;;;5080798;28;20637;-85
2022/08/09 07:49:53;;;;;;;2.50;2.30;;;22.80;56.20;;;;;;5070791;28;20631;-85
2022/08/09 07:52:20;;;;;;;2.63;2.43;;;22.80;55.50;;;;;;5071573;28;20695;-83
2022/08/09 07:54:49;;;;;;;2.03;1.93;;;22.90;54.50;;;;;;5086587;28;20724;-83
2022/08/09 07:57:15;;;;;;;2.10;2.00;;;23.10;54.80;;;;;;5085411;28;20661;-83
2022/08/09 07:59:42;;;;;;;2.33;2.13;;;23.30;54.00;;;;;;5070545;28;20679;-83
2022/08/09 08:02:09;;;;;;;2.83;2.57;;;23.30;54.30;;;;;;5089337;28;20652;-85
2022/08/09 08:04:37;;;;;;;2.50;2.30;;;23.40;53.90;;;;;;5088019;28;20619;-85
2022/08/09 08:07:04;;;;;;;2.43;2.23;;;23.60;53.70;;;;;;5069979;28;21040;-84
2022/08/09 08:09:31;;;;;;;2.10;2.00;;;23.50;53.90;;;;;;5084269;28;20693;-84
2022/08/09 08:11:59;;;;;;;2.63;2.43;;;23.50;53.30;;;;;;5077946;28;20665;-86
2022/08/09 08:14:26;;;;;;;2.20;2.00;;;23.60;53.70;;;;;;5070430;28;20613;-83
2022/08/09 08:16:53;;;;;;;1.90;1.80;;;23.70;53.90;;;;;;5070140;28;20649;-84
2022/08/09 08:19:20;;;;;;;2.20;2.00;;;23.80;53.20;;;;;;5080849;28;21057;-84
2022/08/09 08:21:49;;;;;;;2.47;2.30;;;23.90;53.30;;;;;;5080798;28;20683;-84
2022/08/09 08:24:15;;;;;;;2.20;2.10;;;24.00;53.20;;;;;;5072982;28;20629;-85
2022/08/09 08:26:42;;;;;;;2.00;1.90;;;24.10;52.80;;;;;;5077628;28;20747;-85
2022/08/09 08:29:11;;;;;;;1.90;1.80;;;24.20;52.30;;;;;;5088663;28;20727;-86
2022/08/09 08:31:38;;;;;;;2.73;2.53;;;24.40;52.30;;;;;;5084715;28;20630;-86
2022/08/09 08:34:05;;;;;;;2.40;2.20;;;24.30;52.50;;;;;;5075325;28;20632;-84
2022/08/09 08:36:33;;;;;;;2.60;2.40;;;24.40;51.20;;;;;;5073171;28;20633;-86
2022/08/09 08:39:00;;;;;;;2.30;2.10;;;24.40;51.20;;;;;;5078224;28;20666;-85
2022/08/09 08:41:28;;;;;;;2.00;1.83;;;24.70;51.40;;;;;;5080027;28;20710;-86
2022/08/09 08:43:55;;;;;;;2.87;2.67;;;24.60;51.50;;;;;;5080407;28;20616;-84
2022/08/09 08:46:30;;;;;;;2.20;2.10;;;24.70;51.30;;;;;;5090179;28;20616;-83
2022/08/09 08:48:58;;;;;;;1.90;1.70;;;24.70;52.10;;;;;;5076374;28;20624;-85
2022/08/09 08:51:25;;;;;;;2.07;1.97;;;24.90;50.00;;;;;;5073271;28;20677;-85
2022/08/09 08:53:52;;;;;;;2.50;1.97;;;24.90;50.20;;;;;;5070052;28;20649;-84
2022/08/09 08:56:20;;;;;;;2.17;2.07;;;25.00;50.10;;;;;;5078315;28;20667;-83
2022/08/09 08:58:47;;;;;;;1.90;1.80;;;25.00;50.20;;;;;;5068305;28;20684;-82
2022/08/09 09:01:17;;;;;;;2.47;2.30;;;25.00;50.10;;;;;;5078799;28;20629;-82
2022/08/09 09:03:47;;;;;;;2.47;2.30;;;25.10;50.50;;;;;;5082178;28;20605;-86
2022/08/09 09:06:16;;;;;;;2.50;2.20;;;25.30;50.10;;;;;;5081523;28;20633;-84
2022/08/09 09:08:45;;;;;;;2.33;2.13;;;25.30;50.00;;;;;;5080066;28;20620;-84
2022/08/09 09:11:12;;;;;;;2.60;2.40;;;25.30;50.70;;;;;;5076325;28;20617;-87
2022/08/09 09:13:40;;;;;;;1.97;1.73;;;25.50;50.60;;;;;;5085715;28;20620;-81
2022/08/09 09:16:08;;;;;;;2.00;1.90;;;25.60;50.10;;;;;;5087614;28;21184;-87
2022/08/09 09:18:35;;;;;;;1.70;1.60;;;25.80;49.60;;;;;;5081330;28;20618;-85
2022/08/09 09:21:06;;;;;;;2.77;2.57;;;25.70;49.80;;;;;;5069072;28;20665;-83
2022/08/09 09:23:42;;;;;;;2.10;2.00;;;25.80;50.60;;;;;;5075611;28;20660;-86
2022/08/09 09:26:09;;;;;;;2.63;2.43;;;26.10;49.20;;;;;;5075878;28;21253;-85
2022/08/09 09:28:37;;;;;;;2.30;2.10;;;26.00;49.50;;;;;;5088891;28;20710;-84
2022/08/09 09:31:05;;;;;;;2.90;2.70;;;26.10;49.00;;;;;;5086857;28;20671;-84
2022/08/09 09:33:33;;;;;;;2.70;2.50;;;26.10;50.20;;;;;;5073827;28;20626;-85
2022/08/09 09:36:02;;;;;;;2.43;2.23;;;26.40;49.00;;;;;;5078864;28;21191;-84
2022/08/09 09:38:49;;;;;;;1.93;1.83;;;26.40;48.00;;;;;;5075839;28;20632;-84
2022/08/09 09:41:29;;;;;;;2.70;2.50;;;26.50;48.10;;;;;;5080458;28;20729;-86
2022/08/09 09:43:57;;;;;;;2.50;2.40;;;26.60;48.50;;;;;;5068265;28;20637;-86
2022/08/09 09:46:28;;;;;;;2.10;2.00;;;26.60;49.40;;;;;;5069099;28;20745;-86
2022/08/09 09:49:00;;;;;;;2.10;2.00;;;26.60;49.40;;;;;;5088576;28;20636;-86
2022/08/09 09:51:28;;;;;;;2.00;1.90;;;26.80;48.20;;;;;;5075923;28;20613;-85
2022/08/09 09:54:08;;;;;;;2.60;2.40;;;26.90;48.10;;;;;;5070658;28;20632;-86
2022/08/09 09:56:36;;;;;;;2.87;2.63;;;26.80;48.50;;;;;;5087078;28;20653;-83
2022/08/09 09:59:04;;;;;;;2.67;2.47;;;26.90;47.10;;;;;;5087752;28;20632;-84
2022/08/09 10:01:31;;;;;;;2.00;1.90;;;26.90;47.10;;;;;;5069520;28;21064;-86
2022/08/09 10:03:58;;;;;;;1.83;1.73;;;27.00;47.00;;;;;;5077266;28;20629;-85
2022/08/09 10:06:25;;;;;;;2.03;1.93;;;27.10;44.70;;;;;;5087754;28;21289;-86
2022/08/09 10:08:59;;;;;;;1.80;1.70;;;27.20;44.50;;;;;;5079616;28;20680;-85
2022/08/09 10:11:30;;;;;;;2.30;2.10;;;27.20;44.50;;;;;;5072652;28;20620;-85
2022/08/09 10:13:57;;;;;;;1.90;1.80;;;27.20;44.80;;;;;;5084990;28;20682;-85
2022/08/09 10:16:29;;;;;;;2.37;2.27;;;27.20;44.70;;;;;;5088869;28;21096;-86
2022/08/09 10:18:57;;;;;;;2.20;2.10;;;27.30;45.20;;;;;;5086955;28;20624;-86
2022/08/09 10:21:24;;;;;;;2.57;2.37;;;27.50;44.70;;;;;;5079589;28;20613;-85
2022/08/09 10:23:52;;;;;;;2.00;1.90;;;27.50;46.00;;;;;;5067256;28;20653;-87
2022/08/09 10:26:21;;;;;;;2.40;2.30;;;27.50;44.70;;;;;;5086750;28;20674;-85
2022/08/09 10:28:50;;;;;;;3.63;3.33;;;27.50;44.40;;;;;;5078466;28;20625;-83
2022/08/09 10:31:17;;;;;;;2.20;2.10;;;27.50;44.10;;;;;;5071274;28;20994;-84
2022/08/09 10:33:44;;;;;;;1.90;1.80;;;27.60;44.40;;;;;;5081775;28;20641;-83
2022/08/09 10:36:13;;;;;;;2.50;2.40;;;27.90;44.30;;;;;;5069655;28;20653;-86
2022/08/09 10:38:42;;;;;;;2.80;2.60;;;27.90;43.90;;;;;;5088020;28;20681;-86
2022/08/09 10:41:09;;;;;;;1.87;1.77;;;28.10;44.40;;;;;;5081167;28;20617;-82
2022/08/09 10:43:37;;;;;;;3.80;2.40;;;28.20;43.70;;;;;;5082984;28;20728;-85
2022/08/09 10:46:23;;;;;;;2.53;2.43;;;28.30;44.40;;;;;;5068890;28;20720;-86
2022/08/09 10:48:58;;;;;;;2.00;1.90;;;28.50;43.40;;;;;;5078767;28;20713;-84
2022/08/09 10:51:37;;;;;;;2.70;2.50;;;28.70;43.50;;;;;;5085629;28;20670;-87
2022/08/09 10:54:06;;;;;;;2.60;2.50;;;28.70;42.90;;;;;;5087657;28;20941;-87
2022/08/09 10:56:34;;;;;;;2.03;1.93;;;28.80;42.20;;;;;;5074138;28;20653;-84
2022/08/09 10:59:28;;;;;;;1.90;1.80;;;29.00;40.90;;;;;;5069162;28;20683;-85
2022/08/09 11:01:57;;;;;;;2.10;2.00;;;28.80;41.20;;;;;;5069692;28;20722;-84
2022/08/09 11:04:26;;;;;;;2.20;2.10;;;28.90;41.80;;;;;;5068685;28;21271;-84
2022/08/09 11:07:32;;;;;;;1.80;1.70;;;29.00;42.00;;;;;;5088325;28;20616;-86
2022/08/09 11:09:59;;;;;;;2.40;2.20;;;29.10;41.30;;;;;;5066046;28;20618;-85
2022/08/09 11:12:28;;;;;;;1.87;1.77;;;29.20;41.10;;;;;;5077912;28;20605;-86
2022/08/09 11:14:57;;;;;;;2.10;2.00;;;29.40;41.40;;;;;;5086335;28;21283;-86
2022/08/09 11:17:54;;;;;;;2.10;1.90;;;29.40;41.00;;;;;;5077160;28;20688;-84
2022/08/09 11:20:44;;;;;;;2.00;1.90;;;29.40;41.20;;;;;;5067804;28;20632;-85
2022/08/09 11:23:12;;;;;;;2.10;2.00;;;29.50;40.10;;;;;;5087072;28;20683;-86
2022/08/09 11:25:46;;;;;;;2.00;1.90;;;29.70;41.10;;;;;;5084081;28;21175;-84
2022/08/09 11:28:38;;;;;;;2.07;1.97;;;29.70;39.00;;;;;;5071556;28;20720;-86
2022/08/09 11:31:38;;;;;;;2.03;1.87;;;29.90;40.80;;;;;;5074290;28;20616;-85
2022/08/09 11:34:16;;;;;;;2.20;2.10;;;30.10;39.40;;;;;;5077222;28;20682;-86
2022/08/09 11:36:46;;;;;;;2.20;2.10;;;30.10;39.90;;;;;;5090051;28;20623;-84
2022/08/09 11:39:13;;;;;;;1.83;1.73;;;30.30;39.00;;;;;;5082849;28;20716;-84
2022/08/09 11:41:40;;;;;;;1.80;1.70;;;30.80;38.80;;;;;;5070901;28;20779;-83
2022/08/09 11:44:08;;;;;;;1.60;1.50;;;31.00;37.70;;;;;;5071084;28;20649;-86
2022/08/09 11:46:54;;;;;;;1.63;1.47;;;31.20;37.50;;;;;;5077838;28;20682;-84
2022/08/09 11:49:54;;;;;;;1.93;1.80;;;31.30;36.40;;;;;;5087366;28;20698;-84
2022/08/09 11:52:24;;;;;;;1.60;1.50;;;31.70;37.20;;;;;;5086474;28;20674;-85
2022/08/09 11:55:24;;;;;;;2.00;1.90;;;32.10;36.60;;;;;;5080932;28;21186;-87
2022/08/09 11:57:51;;;;;;;1.67;1.57;;;32.40;34.80;;;;;;5072078;28;21043;-85
2022/08/09 12:00:19;;;;;;;1.43;1.33;;;32.80;36.00;;;;;;5071978;28;20633;-83
2022/08/09 12:02:46;;;;;;;1.70;1.60;;;33.20;34.50;;;;;;5070099;28;20651;-85
2022/08/09 12:05:13;;;;;;;1.40;1.30;;;34.40;34.40;;;;;;5073359;28;20644;-87
2022/08/09 12:07:43;;;;;;;1.20;1.10;;;35.10;32.50;;;;;;5070900;28;20713;-85
2022/08/09 12:10:11;;;;;;;1.20;1.20;;;35.80;30.60;;;;;;5071017;28;20645;-88
2022/08/09 12:12:45;;;;;;;1.23;1.13;;;36.60;30.00;;;;;;5088231;28;20654;-85
2022/08/09 12:15:22;;;;;;;1.57;1.47;;;36.90;29.90;;;;;;5071162;28;21051;-84
2022/08/09 12:17:49;;;;;;;1.70;1.60;;;37.60;29.80;;;;;;5089795;28;20736;-83
2022/08/09 12:20:17;;;;;;;1.40;1.40;;;38.60;29.20;;;;;;5089671;28;20299;-84
2022/08/09 12:22:46;;;;;;;1.65;1.50;;;38.40;29.70;;;;;;5078944;28;20239;-82
2022/08/09 12:25:15;;;;;;;1.10;1.10;;;38.50;29.80;;;;;;5086504;28;20290;-84
2022/08/09 12:27:42;;;;;;;1.50;1.40;;;38.30;30.20;;;;;;5081722;28;20205;-86
2022/08/09 12:30:10;;;;;;;1.15;1.15;;;38.70;29.70;;;;;;5086743;28;20669;-84
2022/08/09 12:32:37;;;;;;;1.23;1.23;;;39.00;29.00;;;;;;5072029;28;20292;-83
2022/08/09 12:35:07;;;;;;;1.52;1.42;;;39.10;29.00;;;;;;5083581;28;20819;-85
2022/08/09 12:37:35;;;;;;;1.42;1.40;;;39.30;28.60;;;;;;5090278;28;20321;-84
2022/08/09 12:40:07;;;;;;;1.73;1.63;;;39.90;28.80;;;;;;5080445;28;20206;-86
2022/08/09 12:42:34;;;;;;;1.63;1.52;;;39.80;28.70;;;;;;5077116;28;20211;-84
2022/08/09 12:45:02;;;;;;;1.63;1.52;;;39.70;28.80;;;;;;5069884;28;20271;-85
2022/08/09 12:47:31;;;;;;;1.73;1.63;;;40.10;28.80;;;;;;5071022;28;20246;-84
2022/08/09 12:52:45;;;;;;;1.80;1.70;;;40.30;28.70;;;;;;5085132;28;20209;-84
2022/08/09 12:55:24;;;;;;;1.88;1.77;;;40.30;28.50;;;;;;5081333;28;20594;-83
2022/08/09 12:57:52;;;;;;;1.30;1.30;;;40.00;28.60;;;;;;5084850;28;20230;-86
2022/08/09 13:00:20;;;;;;;1.55;1.45;;;40.00;28.60;;;;;;5070830;28;20238;-86
2022/08/09 13:02:53;;;;;;;1.88;1.77;;;39.90;29.00;;;;;;5069872;28;20214;-87